sensor_id;sensor_type;location;lat;lon;timestamp;P1;durP1;ratioP1;P2;durP2;ratioP2
38312;SDS011;24114;52.260;6.714;2024-02-21T00:00:18;27.13;;;14.50;;
38312;SDS011;24114;52.260;6.714;2024-02-21T00:02:46;24.02;;;14.18;;
38312;SDS011;24114;52.260;6.714;2024-02-21T00:05:15;27.90;;;15.38;;
38312;SDS011;24114;52.260;6.714;2024-02-21T00:07:43;27.00;;;14.60;;
38312;SDS011;24114;52.260;6.714;2024-02-21T00:10:11;26.42;;;14.73;;
38312;SDS011;24114;52.260;6.714;2024-02-21T00:12:39;26.15;;;14.82;;
38312;SDS011;24114;52.260;6.714;2024-02-21T00:15:07;27.33;;;14.63;;
38312;SDS011;24114;52.260;6.714;2024-02-21T00:17:35;24.40;;;14.65;;
38312;SDS011;24114;52.260;6.714;2024-02-21T00:20:03;24.60;;;13.50;;
38312;SDS011;24114;52.260;6.714;2024-02-21T00:22:33;21.92;;;14.02;;
38312;SDS011;24114;52.260;6.714;2024-02-21T00:25:01;24.77;;;13.70;;
38312;SDS011;24114;52.260;6.714;2024-02-21T00:27:29;22.42;;;13.82;;
38312;SDS011;24114;52.260;6.714;2024-02-21T00:29:57;21.88;;;14.10;;
38312;SDS011;24114;52.260;6.714;2024-02-21T00:32:25;21.65;;;13.77;;
38312;SDS011;24114;52.260;6.714;2024-02-21T00:34:53;24.00;;;13.97;;
38312;SDS011;24114;52.260;6.714;2024-02-21T00:37:20;21.40;;;13.07;;
38312;SDS011;24114;52.260;6.714;2024-02-21T00:39:49;22.00;;;13.93;;
38312;SDS011;24114;52.260;6.714;2024-02-21T00:42:17;25.80;;;14.57;;
38312;SDS011;24114;52.260;6.714;2024-02-21T00:44:45;21.83;;;13.18;;
38312;SDS011;24114;52.260;6.714;2024-02-21T00:47:13;21.67;;;13.93;;
38312;SDS011;24114;52.260;6.714;2024-02-21T00:49:41;21.60;;;13.93;;
38312;SDS011;24114;52.260;6.714;2024-02-21T00:52:09;22.85;;;13.60;;
38312;SDS011;24114;52.260;6.714;2024-02-21T00:54:36;23.45;;;13.82;;
38312;SDS011;24114;52.260;6.714;2024-02-21T00:57:19;21.77;;;13.50;;
38312;SDS011;24114;52.260;6.714;2024-02-21T00:59:47;22.98;;;13.32;;
38312;SDS011;24114;52.260;6.714;2024-02-21T01:02:15;20.58;;;13.25;;
38312;SDS011;24114;52.260;6.714;2024-02-21T01:04:44;23.92;;;13.80;;
38312;SDS011;24114;52.260;6.714;2024-02-21T01:07:12;20.50;;;12.98;;
38312;SDS011;24114;52.260;6.714;2024-02-21T01:09:40;24.53;;;13.33;;
38312;SDS011;24114;52.260;6.714;2024-02-21T01:12:07;21.27;;;13.40;;
38312;SDS011;24114;52.260;6.714;2024-02-21T01:14:37;24.60;;;13.32;;
38312;SDS011;24114;52.260;6.714;2024-02-21T01:17:04;21.70;;;13.13;;
38312;SDS011;24114;52.260;6.714;2024-02-21T01:19:32;21.95;;;12.93;;
38312;SDS011;24114;52.260;6.714;2024-02-21T01:22:00;22.23;;;12.77;;
38312;SDS011;24114;52.260;6.714;2024-02-21T01:24:28;22.77;;;12.80;;
38312;SDS011;24114;52.260;6.714;2024-02-21T01:26:56;22.73;;;12.88;;
38312;SDS011;24114;52.260;6.714;2024-02-21T01:29:24;20.70;;;12.40;;
38312;SDS011;24114;52.260;6.714;2024-02-21T01:31:53;25.15;;;13.05;;
38312;SDS011;24114;52.260;6.714;2024-02-21T01:34:21;20.85;;;12.48;;
38312;SDS011;24114;52.260;6.714;2024-02-21T01:36:49;25.95;;;13.00;;
38312;SDS011;24114;52.260;6.714;2024-02-21T01:39:16;21.15;;;12.07;;
38312;SDS011;24114;52.260;6.714;2024-02-21T01:41:44;20.48;;;12.70;;
38312;SDS011;24114;52.260;6.714;2024-02-21T01:44:13;22.23;;;13.02;;
38312;SDS011;24114;52.260;6.714;2024-02-21T01:46:41;19.70;;;11.95;;
38312;SDS011;24114;52.260;6.714;2024-02-21T01:49:10;23.30;;;12.60;;
38312;SDS011;24114;52.260;6.714;2024-02-21T01:51:38;22.85;;;12.68;;
38312;SDS011;24114;52.260;6.714;2024-02-21T01:54:06;21.35;;;12.48;;
38312;SDS011;24114;52.260;6.714;2024-02-21T01:56:34;21.07;;;13.13;;
38312;SDS011;24114;52.260;6.714;2024-02-21T01:59:02;18.35;;;12.45;;
38312;SDS011;24114;52.260;6.714;2024-02-21T02:01:30;22.20;;;13.50;;
38312;SDS011;24114;52.260;6.714;2024-02-21T02:03:58;20.65;;;12.90;;
38312;SDS011;24114;52.260;6.714;2024-02-21T02:06:28;22.13;;;12.85;;
38312;SDS011;24114;52.260;6.714;2024-02-21T02:08:56;22.20;;;13.47;;
38312;SDS011;24114;52.260;6.714;2024-02-21T02:11:24;23.55;;;13.70;;
38312;SDS011;24114;52.260;6.714;2024-02-21T02:13:52;21.77;;;13.10;;
38312;SDS011;24114;52.260;6.714;2024-02-21T02:16:20;20.25;;;12.93;;
38312;SDS011;24114;52.260;6.714;2024-02-21T02:18:48;22.90;;;12.82;;
38312;SDS011;24114;52.260;6.714;2024-02-21T02:21:23;24.88;;;12.90;;
38312;SDS011;24114;52.260;6.714;2024-02-21T02:23:58;23.33;;;13.02;;
38312;SDS011;24114;52.260;6.714;2024-02-21T02:26:26;19.90;;;12.77;;
38312;SDS011;24114;52.260;6.714;2024-02-21T02:28:54;19.90;;;12.27;;
38312;SDS011;24114;52.260;6.714;2024-02-21T02:31:22;20.80;;;12.63;;
38312;SDS011;24114;52.260;6.714;2024-02-21T02:33:50;19.90;;;12.10;;
38312;SDS011;24114;52.260;6.714;2024-02-21T02:36:18;19.42;;;12.40;;
38312;SDS011;24114;52.260;6.714;2024-02-21T02:38:46;23.30;;;12.82;;
38312;SDS011;24114;52.260;6.714;2024-02-21T02:41:15;19.80;;;12.35;;
38312;SDS011;24114;52.260;6.714;2024-02-21T02:43:43;21.00;;;12.50;;
38312;SDS011;24114;52.260;6.714;2024-02-21T02:46:11;21.20;;;12.93;;
38312;SDS011;24114;52.260;6.714;2024-02-21T02:48:39;18.75;;;12.73;;
38312;SDS011;24114;52.260;6.714;2024-02-21T02:51:07;20.35;;;12.30;;
38312;SDS011;24114;52.260;6.714;2024-02-21T02:53:34;20.33;;;12.30;;
38312;SDS011;24114;52.260;6.714;2024-02-21T02:56:02;18.60;;;11.82;;
38312;SDS011;24114;52.260;6.714;2024-02-21T02:58:32;18.83;;;12.87;;
38312;SDS011;24114;52.260;6.714;2024-02-21T03:01:01;20.43;;;12.50;;
38312;SDS011;24114;52.260;6.714;2024-02-21T03:03:30;18.97;;;12.60;;
38312;SDS011;24114;52.260;6.714;2024-02-21T03:05:58;20.00;;;12.45;;
38312;SDS011;24114;52.260;6.714;2024-02-21T03:08:26;19.75;;;13.18;;
38312;SDS011;24114;52.260;6.714;2024-02-21T03:10:54;21.65;;;13.23;;
38312;SDS011;24114;52.260;6.714;2024-02-21T03:13:21;20.50;;;12.70;;
38312;SDS011;24114;52.260;6.714;2024-02-21T03:15:51;20.90;;;12.68;;
38312;SDS011;24114;52.260;6.714;2024-02-21T03:18:18;19.75;;;12.75;;
38312;SDS011;24114;52.260;6.714;2024-02-21T03:20:46;20.00;;;12.77;;
38312;SDS011;24114;52.260;6.714;2024-02-21T03:23:14;19.80;;;13.13;;
38312;SDS011;24114;52.260;6.714;2024-02-21T03:25:42;22.05;;;13.52;;
38312;SDS011;24114;52.260;6.714;2024-02-21T03:28:10;20.27;;;13.23;;
38312;SDS011;24114;52.260;6.714;2024-02-21T03:30:38;21.92;;;13.50;;
38312;SDS011;24114;52.260;6.714;2024-02-21T03:33:08;21.98;;;13.30;;
38312;SDS011;24114;52.260;6.714;2024-02-21T03:35:35;19.35;;;12.20;;
38312;SDS011;24114;52.260;6.714;2024-02-21T03:38:03;19.95;;;13.63;;
38312;SDS011;24114;52.260;6.714;2024-02-21T03:40:31;22.20;;;13.27;;
38312;SDS011;24114;52.260;6.714;2024-02-21T03:42:59;18.98;;;12.77;;
38312;SDS011;24114;52.260;6.714;2024-02-21T03:45:27;21.98;;;12.70;;
38312;SDS011;24114;52.260;6.714;2024-02-21T03:47:54;22.02;;;13.32;;
38312;SDS011;24114;52.260;6.714;2024-02-21T03:50:24;20.65;;;13.52;;
38312;SDS011;24114;52.260;6.714;2024-02-21T03:52:54;21.88;;;13.10;;
38312;SDS011;24114;52.260;6.714;2024-02-21T03:55:21;21.48;;;13.25;;
38312;SDS011;24114;52.260;6.714;2024-02-21T03:57:49;23.43;;;13.67;;
38312;SDS011;24114;52.260;6.714;2024-02-21T04:00:17;22.50;;;13.52;;
38312;SDS011;24114;52.260;6.714;2024-02-21T04:02:45;19.40;;;12.82;;
38312;SDS011;24114;52.260;6.714;2024-02-21T04:05:15;21.65;;;13.05;;
38312;SDS011;24114;52.260;6.714;2024-02-21T04:07:44;21.92;;;13.55;;
38312;SDS011;24114;52.260;6.714;2024-02-21T04:10:12;21.02;;;11.98;;
38312;SDS011;24114;52.260;6.714;2024-02-21T04:12:40;20.13;;;12.25;;
38312;SDS011;24114;52.260;6.714;2024-02-21T04:15:08;18.10;;;12.23;;
38312;SDS011;24114;52.260;6.714;2024-02-21T04:17:36;20.77;;;12.63;;
38312;SDS011;24114;52.260;6.714;2024-02-21T04:20:04;20.65;;;12.35;;
38312;SDS011;24114;52.260;6.714;2024-02-21T04:22:34;23.25;;;13.63;;
38312;SDS011;24114;52.260;6.714;2024-02-21T04:25:04;19.85;;;12.85;;
38312;SDS011;24114;52.260;6.714;2024-02-21T04:27:32;20.08;;;12.20;;
38312;SDS011;24114;52.260;6.714;2024-02-21T04:30:00;22.63;;;12.53;;
38312;SDS011;24114;52.260;6.714;2024-02-21T04:32:28;21.83;;;13.27;;
38312;SDS011;24114;52.260;6.714;2024-02-21T04:34:56;18.55;;;12.98;;
38312;SDS011;24114;52.260;6.714;2024-02-21T04:37:24;21.33;;;12.67;;
38312;SDS011;24114;52.260;6.714;2024-02-21T04:39:52;21.67;;;13.00;;
38312;SDS011;24114;52.260;6.714;2024-02-21T04:42:21;19.05;;;12.98;;
38312;SDS011;24114;52.260;6.714;2024-02-21T04:44:48;20.50;;;12.98;;
38312;SDS011;24114;52.260;6.714;2024-02-21T04:47:16;22.23;;;12.90;;
38312;SDS011;24114;52.260;6.714;2024-02-21T04:49:45;18.58;;;12.35;;
38312;SDS011;24114;52.260;6.714;2024-02-21T04:52:13;19.95;;;12.75;;
38312;SDS011;24114;52.260;6.714;2024-02-21T04:54:41;21.48;;;12.77;;
38312;SDS011;24114;52.260;6.714;2024-02-21T04:57:09;23.05;;;12.70;;
38312;SDS011;24114;52.260;6.714;2024-02-21T04:59:38;18.23;;;12.07;;
38312;SDS011;24114;52.260;6.714;2024-02-21T05:02:06;22.50;;;12.60;;
38312;SDS011;24114;52.260;6.714;2024-02-21T05:04:37;20.33;;;12.82;;
38312;SDS011;24114;52.260;6.714;2024-02-21T05:07:06;18.42;;;12.07;;
38312;SDS011;24114;52.260;6.714;2024-02-21T05:09:34;18.48;;;11.60;;
38312;SDS011;24114;52.260;6.714;2024-02-21T05:12:02;18.17;;;11.40;;
38312;SDS011;24114;52.260;6.714;2024-02-21T05:14:30;17.58;;;11.00;;
38312;SDS011;24114;52.260;6.714;2024-02-21T05:17:00;16.70;;;11.20;;
38312;SDS011;24114;52.260;6.714;2024-02-21T05:19:28;16.50;;;10.82;;
38312;SDS011;24114;52.260;6.714;2024-02-21T05:21:56;18.05;;;11.63;;
38312;SDS011;24114;52.260;6.714;2024-02-21T05:24:23;19.35;;;11.70;;
38312;SDS011;24114;52.260;6.714;2024-02-21T05:26:51;17.02;;;10.45;;
38312;SDS011;24114;52.260;6.714;2024-02-21T05:29:19;18.10;;;10.63;;
38312;SDS011;24114;52.260;6.714;2024-02-21T05:31:56;16.88;;;10.38;;
38312;SDS011;24114;52.260;6.714;2024-02-21T05:34:26;17.00;;;10.95;;
38312;SDS011;24114;52.260;6.714;2024-02-21T05:36:54;15.50;;;10.23;;
38312;SDS011;24114;52.260;6.714;2024-02-21T05:39:24;18.13;;;10.27;;
38312;SDS011;24114;52.260;6.714;2024-02-21T05:41:51;16.55;;;10.23;;
38312;SDS011;24114;52.260;6.714;2024-02-21T05:44:19;17.00;;;10.35;;
38312;SDS011;24114;52.260;6.714;2024-02-21T05:46:48;15.45;;;9.85;;
38312;SDS011;24114;52.260;6.714;2024-02-21T05:49:16;17.27;;;10.38;;
38312;SDS011;24114;52.260;6.714;2024-02-21T05:51:46;17.83;;;10.20;;
38312;SDS011;24114;52.260;6.714;2024-02-21T05:54:13;18.57;;;10.43;;
38312;SDS011;24114;52.260;6.714;2024-02-21T05:56:43;16.92;;;10.25;;
38312;SDS011;24114;52.260;6.714;2024-02-21T05:59:11;16.35;;;10.15;;
38312;SDS011;24114;52.260;6.714;2024-02-21T06:01:39;14.27;;;9.88;;
38312;SDS011;24114;52.260;6.714;2024-02-21T06:04:07;19.60;;;10.33;;
38312;SDS011;24114;52.260;6.714;2024-02-21T06:06:35;15.13;;;9.73;;
38312;SDS011;24114;52.260;6.714;2024-02-21T06:09:04;16.35;;;9.82;;
38312;SDS011;24114;52.260;6.714;2024-02-21T06:11:32;16.15;;;9.73;;
38312;SDS011;24114;52.260;6.714;2024-02-21T06:14:01;14.50;;;9.43;;
38312;SDS011;24114;52.260;6.714;2024-02-21T06:16:29;12.33;;;8.83;;
38312;SDS011;24114;52.260;6.714;2024-02-21T06:18:57;20.02;;;8.93;;
38312;SDS011;24114;52.260;6.714;2024-02-21T06:21:28;13.27;;;9.02;;
38312;SDS011;24114;52.260;6.714;2024-02-21T06:23:56;13.07;;;8.85;;
38312;SDS011;24114;52.260;6.714;2024-02-21T06:26:25;13.48;;;8.65;;
38312;SDS011;24114;52.260;6.714;2024-02-21T06:28:53;15.85;;;9.05;;
38312;SDS011;24114;52.260;6.714;2024-02-21T06:31:21;13.63;;;8.30;;
38312;SDS011;24114;52.260;6.714;2024-02-21T06:33:49;12.57;;;8.20;;
38312;SDS011;24114;52.260;6.714;2024-02-21T06:36:17;15.55;;;8.77;;
38312;SDS011;24114;52.260;6.714;2024-02-21T06:38:45;13.48;;;7.60;;
38312;SDS011;24114;52.260;6.714;2024-02-21T06:41:15;14.75;;;8.63;;
38312;SDS011;24114;52.260;6.714;2024-02-21T06:43:46;12.50;;;7.53;;
38312;SDS011;24114;52.260;6.714;2024-02-21T06:46:22;13.45;;;7.72;;
38312;SDS011;24114;52.260;6.714;2024-02-21T06:48:50;13.15;;;7.55;;
38312;SDS011;24114;52.260;6.714;2024-02-21T06:51:18;12.18;;;7.30;;
38312;SDS011;24114;52.260;6.714;2024-02-21T06:53:46;11.55;;;7.10;;
38312;SDS011;24114;52.260;6.714;2024-02-21T06:56:14;10.90;;;7.40;;
38312;SDS011;24114;52.260;6.714;2024-02-21T06:58:42;12.85;;;7.43;;
38312;SDS011;24114;52.260;6.714;2024-02-21T07:01:11;13.17;;;7.60;;
38312;SDS011;24114;52.260;6.714;2024-02-21T07:03:39;11.45;;;6.80;;
38312;SDS011;24114;52.260;6.714;2024-02-21T07:06:07;11.98;;;6.93;;
38312;SDS011;24114;52.260;6.714;2024-02-21T07:08:35;10.30;;;6.43;;
38312;SDS011;24114;52.260;6.714;2024-02-21T07:11:03;11.13;;;6.40;;
38312;SDS011;24114;52.260;6.714;2024-02-21T07:13:32;11.50;;;6.65;;
38312;SDS011;24114;52.260;6.714;2024-02-21T07:15:59;11.70;;;7.10;;
38312;SDS011;24114;52.260;6.714;2024-02-21T07:18:29;13.75;;;7.13;;
38312;SDS011;24114;52.260;6.714;2024-02-21T07:20:56;10.52;;;6.72;;
38312;SDS011;24114;52.260;6.714;2024-02-21T07:23:24;11.90;;;7.55;;
38312;SDS011;24114;52.260;6.714;2024-02-21T07:25:52;15.75;;;7.90;;
38312;SDS011;24114;52.260;6.714;2024-02-21T07:28:20;11.93;;;7.63;;
38312;SDS011;24114;52.260;6.714;2024-02-21T07:30:48;14.15;;;8.05;;
38312;SDS011;24114;52.260;6.714;2024-02-21T07:33:16;15.15;;;8.07;;
38312;SDS011;24114;52.260;6.714;2024-02-21T07:35:45;14.38;;;8.38;;
38312;SDS011;24114;52.260;6.714;2024-02-21T07:38:16;14.17;;;8.77;;
38312;SDS011;24114;52.260;6.714;2024-02-21T07:40:44;13.25;;;8.25;;
38312;SDS011;24114;52.260;6.714;2024-02-21T07:43:12;14.98;;;9.00;;
38312;SDS011;24114;52.260;6.714;2024-02-21T07:45:40;14.88;;;8.82;;
38312;SDS011;24114;52.260;6.714;2024-02-21T07:48:08;12.25;;;8.48;;
38312;SDS011;24114;52.260;6.714;2024-02-21T07:50:36;14.88;;;9.10;;
38312;SDS011;24114;52.260;6.714;2024-02-21T07:53:05;15.27;;;9.18;;
38312;SDS011;24114;52.260;6.714;2024-02-21T07:55:33;16.40;;;9.63;;
38312;SDS011;24114;52.260;6.714;2024-02-21T07:58:01;14.07;;;8.55;;
38312;SDS011;24114;52.260;6.714;2024-02-21T08:00:29;15.45;;;8.85;;
38312;SDS011;24114;52.260;6.714;2024-02-21T08:02:57;14.65;;;8.25;;
38312;SDS011;24114;52.260;6.714;2024-02-21T08:05:25;14.32;;;9.10;;
38312;SDS011;24114;52.260;6.714;2024-02-21T08:07:53;14.20;;;8.75;;
38312;SDS011;24114;52.260;6.714;2024-02-21T08:10:25;13.45;;;8.32;;
38312;SDS011;24114;52.260;6.714;2024-02-21T08:12:53;15.02;;;8.60;;
38312;SDS011;24114;52.260;6.714;2024-02-21T08:15:20;13.10;;;7.88;;
38312;SDS011;24114;52.260;6.714;2024-02-21T08:17:54;13.05;;;7.78;;
38312;SDS011;24114;52.260;6.714;2024-02-21T08:20:26;14.20;;;8.10;;
38312;SDS011;24114;52.260;6.714;2024-02-21T08:22:54;13.60;;;7.82;;
38312;SDS011;24114;52.260;6.714;2024-02-21T08:25:22;14.60;;;8.57;;
38312;SDS011;24114;52.260;6.714;2024-02-21T08:27:51;14.30;;;7.90;;
38312;SDS011;24114;52.260;6.714;2024-02-21T08:30:20;11.45;;;6.95;;
38312;SDS011;24114;52.260;6.714;2024-02-21T08:32:48;11.52;;;7.30;;
38312;SDS011;24114;52.260;6.714;2024-02-21T08:35:16;12.87;;;7.53;;
38312;SDS011;24114;52.260;6.714;2024-02-21T08:37:45;11.75;;;7.38;;
38312;SDS011;24114;52.260;6.714;2024-02-21T08:40:14;11.07;;;7.05;;
38312;SDS011;24114;52.260;6.714;2024-02-21T08:42:44;10.10;;;6.65;;
38312;SDS011;24114;52.260;6.714;2024-02-21T08:45:13;14.10;;;7.07;;
38312;SDS011;24114;52.260;6.714;2024-02-21T08:47:41;12.25;;;7.03;;
38312;SDS011;24114;52.260;6.714;2024-02-21T08:50:09;12.43;;;6.85;;
38312;SDS011;24114;52.260;6.714;2024-02-21T08:52:52;11.90;;;7.10;;
38312;SDS011;24114;52.260;6.714;2024-02-21T08:55:20;12.80;;;7.07;;
38312;SDS011;24114;52.260;6.714;2024-02-21T08:57:48;11.15;;;6.70;;
38312;SDS011;24114;52.260;6.714;2024-02-21T09:00:18;10.45;;;6.60;;
38312;SDS011;24114;52.260;6.714;2024-02-21T09:02:50;10.38;;;6.25;;
38312;SDS011;24114;52.260;6.714;2024-02-21T09:05:18;10.45;;;6.68;;
38312;SDS011;24114;52.260;6.714;2024-02-21T09:07:46;11.23;;;6.78;;
38312;SDS011;24114;52.260;6.714;2024-02-21T09:10:14;13.73;;;6.50;;
38312;SDS011;24114;52.260;6.714;2024-02-21T09:12:42;10.75;;;6.65;;
38312;SDS011;24114;52.260;6.714;2024-02-21T09:15:10;13.77;;;7.32;;
38312;SDS011;24114;52.260;6.714;2024-02-21T09:17:40;10.43;;;6.18;;
38312;SDS011;24114;52.260;6.714;2024-02-21T09:20:08;11.50;;;6.95;;
38312;SDS011;24114;52.260;6.714;2024-02-21T09:22:38;12.43;;;7.13;;
38312;SDS011;24114;52.260;6.714;2024-02-21T09:25:07;10.60;;;6.50;;
38312;SDS011;24114;52.260;6.714;2024-02-21T09:27:38;11.90;;;6.73;;
38312;SDS011;24114;52.260;6.714;2024-02-21T09:30:06;10.82;;;6.93;;
38312;SDS011;24114;52.260;6.714;2024-02-21T09:32:34;11.63;;;6.93;;
38312;SDS011;24114;52.260;6.714;2024-02-21T09:35:04;11.95;;;7.50;;
38312;SDS011;24114;52.260;6.714;2024-02-21T09:37:32;10.30;;;7.00;;
38312;SDS011;24114;52.260;6.714;2024-02-21T09:40:00;9.75;;;7.25;;
38312;SDS011;24114;52.260;6.714;2024-02-21T09:42:30;10.93;;;7.00;;
38312;SDS011;24114;52.260;6.714;2024-02-21T09:45:04;12.73;;;7.10;;
38312;SDS011;24114;52.260;6.714;2024-02-21T09:47:39;10.35;;;6.95;;
38312;SDS011;24114;52.260;6.714;2024-02-21T09:50:13;10.13;;;6.63;;
38312;SDS011;24114;52.260;6.714;2024-02-21T09:52:41;10.55;;;6.55;;
38312;SDS011;24114;52.260;6.714;2024-02-21T09:55:10;9.98;;;6.45;;
38312;SDS011;24114;52.260;6.714;2024-02-21T09:57:40;11.90;;;7.13;;
38312;SDS011;24114;52.260;6.714;2024-02-21T10:00:08;9.82;;;6.68;;
38312;SDS011;24114;52.260;6.714;2024-02-21T10:02:38;9.65;;;6.63;;
38312;SDS011;24114;52.260;6.714;2024-02-21T10:05:06;11.18;;;6.50;;
38312;SDS011;24114;52.260;6.714;2024-02-21T10:07:36;9.18;;;6.40;;
38312;SDS011;24114;52.260;6.714;2024-02-21T10:10:05;11.00;;;6.40;;
38312;SDS011;24114;52.260;6.714;2024-02-21T10:12:34;9.00;;;6.22;;
38312;SDS011;24114;52.260;6.714;2024-02-21T10:15:02;10.65;;;6.78;;
38312;SDS011;24114;52.260;6.714;2024-02-21T10:17:31;8.50;;;6.05;;
38312;SDS011;24114;52.260;6.714;2024-02-21T10:20:06;10.50;;;6.38;;
38312;SDS011;24114;52.260;6.714;2024-02-21T10:22:37;8.75;;;6.00;;
38312;SDS011;24114;52.260;6.714;2024-02-21T10:25:06;7.95;;;5.80;;
38312;SDS011;24114;52.260;6.714;2024-02-21T10:27:34;9.07;;;5.95;;
38312;SDS011;24114;52.260;6.714;2024-02-21T10:30:04;8.53;;;5.30;;
38312;SDS011;24114;52.260;6.714;2024-02-21T10:32:36;9.95;;;6.30;;
38312;SDS011;24114;52.260;6.714;2024-02-21T10:35:04;9.48;;;5.90;;
38312;SDS011;24114;52.260;6.714;2024-02-21T10:37:32;8.82;;;6.05;;
38312;SDS011;24114;52.260;6.714;2024-02-21T10:40:01;7.75;;;5.60;;
38312;SDS011;24114;52.260;6.714;2024-02-21T10:42:31;7.72;;;5.30;;
38312;SDS011;24114;52.260;6.714;2024-02-21T10:45:01;8.07;;;5.35;;
38312;SDS011;24114;52.260;6.714;2024-02-21T10:47:30;7.78;;;5.35;;
38312;SDS011;24114;52.260;6.714;2024-02-21T10:50:02;7.55;;;5.55;;
38312;SDS011;24114;52.260;6.714;2024-02-21T10:52:32;7.23;;;4.97;;
38312;SDS011;24114;52.260;6.714;2024-02-21T10:57:40;8.30;;;5.20;;
38312;SDS011;24114;52.260;6.714;2024-02-21T11:00:08;6.20;;;4.15;;
38312;SDS011;24114;52.260;6.714;2024-02-21T11:02:39;6.88;;;4.47;;
38312;SDS011;24114;52.260;6.714;2024-02-21T11:05:07;6.07;;;4.00;;
38312;SDS011;24114;52.260;6.714;2024-02-21T11:07:36;6.60;;;3.95;;
38312;SDS011;24114;52.260;6.714;2024-02-21T11:10:05;7.57;;;4.47;;
38312;SDS011;24114;52.260;6.714;2024-02-21T11:12:35;7.22;;;3.85;;
38312;SDS011;24114;52.260;6.714;2024-02-21T11:15:03;6.18;;;4.03;;
38312;SDS011;24114;52.260;6.714;2024-02-21T11:17:32;5.13;;;3.85;;
38312;SDS011;24114;52.260;6.714;2024-02-21T11:20:13;5.55;;;3.55;;
38312;SDS011;24114;52.260;6.714;2024-02-21T11:22:41;4.32;;;3.38;;
38312;SDS011;24114;52.260;6.714;2024-02-21T11:25:10;5.10;;;2.90;;
38312;SDS011;24114;52.260;6.714;2024-02-21T11:27:40;4.57;;;2.80;;
38312;SDS011;24114;52.260;6.714;2024-02-21T11:30:13;5.40;;;2.90;;
38312;SDS011;24114;52.260;6.714;2024-02-21T11:32:42;4.35;;;2.70;;
38312;SDS011;24114;52.260;6.714;2024-02-21T11:35:10;3.92;;;2.17;;
38312;SDS011;24114;52.260;6.714;2024-02-21T11:37:46;3.33;;;2.33;;
38312;SDS011;24114;52.260;6.714;2024-02-21T11:40:17;2.95;;;2.63;;
38312;SDS011;24114;52.260;6.714;2024-02-21T11:42:46;3.60;;;2.58;;
38312;SDS011;24114;52.260;6.714;2024-02-21T11:45:14;3.65;;;2.85;;
38312;SDS011;24114;52.260;6.714;2024-02-21T11:47:42;3.53;;;2.78;;
38312;SDS011;24114;52.260;6.714;2024-02-21T11:50:10;4.50;;;2.97;;
38312;SDS011;24114;52.260;6.714;2024-02-21T11:52:40;4.13;;;3.30;;
38312;SDS011;24114;52.260;6.714;2024-02-21T11:55:08;4.00;;;3.03;;
38312;SDS011;24114;52.260;6.714;2024-02-21T11:57:36;4.32;;;3.30;;
38312;SDS011;24114;52.260;6.714;2024-02-21T12:00:15;5.40;;;3.33;;
38312;SDS011;24114;52.260;6.714;2024-02-21T12:02:46;5.38;;;3.40;;
38312;SDS011;24114;52.260;6.714;2024-02-21T12:05:14;5.47;;;3.80;;
38312;SDS011;24114;52.260;6.714;2024-02-21T12:07:42;5.70;;;3.75;;
38312;SDS011;24114;52.260;6.714;2024-02-21T12:10:11;5.50;;;4.22;;
38312;SDS011;24114;52.260;6.714;2024-02-21T12:12:39;6.65;;;4.30;;
38312;SDS011;24114;52.260;6.714;2024-02-21T12:15:07;6.60;;;4.60;;
38312;SDS011;24114;52.260;6.714;2024-02-21T12:17:37;8.48;;;5.07;;
38312;SDS011;24114;52.260;6.714;2024-02-21T12:20:06;6.82;;;4.70;;
38312;SDS011;24114;52.260;6.714;2024-02-21T12:22:36;9.43;;;5.20;;
38312;SDS011;24114;52.260;6.714;2024-02-21T12:25:15;9.20;;;4.82;;
38312;SDS011;24114;52.260;6.714;2024-02-21T12:27:44;6.47;;;4.60;;
38312;SDS011;24114;52.260;6.714;2024-02-21T12:30:12;8.30;;;4.70;;
38312;SDS011;24114;52.260;6.714;2024-02-21T12:32:41;8.93;;;4.93;;
38312;SDS011;24114;52.260;6.714;2024-02-21T12:35:09;8.88;;;5.38;;
38312;SDS011;24114;52.260;6.714;2024-02-21T12:37:37;8.30;;;4.88;;
38312;SDS011;24114;52.260;6.714;2024-02-21T12:40:06;8.55;;;4.60;;
38312;SDS011;24114;52.260;6.714;2024-02-21T12:42:37;6.93;;;4.70;;
38312;SDS011;24114;52.260;6.714;2024-02-21T12:45:05;7.78;;;4.57;;
38312;SDS011;24114;52.260;6.714;2024-02-21T12:47:34;9.23;;;4.30;;
38312;SDS011;24114;52.260;6.714;2024-02-21T12:50:03;9.20;;;4.75;;
38312;SDS011;24114;52.260;6.714;2024-02-21T12:52:33;7.32;;;4.20;;
38312;SDS011;24114;52.260;6.714;2024-02-21T12:55:01;8.48;;;4.40;;
38312;SDS011;24114;52.260;6.714;2024-02-21T12:57:29;8.00;;;4.30;;
38312;SDS011;24114;52.260;6.714;2024-02-21T12:59:57;10.23;;;4.25;;
38312;SDS011;24114;52.260;6.714;2024-02-21T13:02:25;6.90;;;4.18;;
38312;SDS011;24114;52.260;6.714;2024-02-21T13:04:53;8.25;;;4.03;;
38312;SDS011;24114;52.260;6.714;2024-02-21T13:07:23;8.60;;;4.22;;
38312;SDS011;24114;52.260;6.714;2024-02-21T13:09:51;7.72;;;4.00;;
38312;SDS011;24114;52.260;6.714;2024-02-21T13:12:18;6.77;;;4.23;;
38312;SDS011;24114;52.260;6.714;2024-02-21T13:14:46;8.75;;;4.10;;
38312;SDS011;24114;52.260;6.714;2024-02-21T13:17:14;7.18;;;4.30;;
38312;SDS011;24114;52.260;6.714;2024-02-21T13:19:43;8.23;;;4.20;;
38312;SDS011;24114;52.260;6.714;2024-02-21T13:22:11;8.25;;;4.30;;
38312;SDS011;24114;52.260;6.714;2024-02-21T13:24:40;7.13;;;3.72;;
38312;SDS011;24114;52.260;6.714;2024-02-21T13:27:08;7.50;;;4.00;;
38312;SDS011;24114;52.260;6.714;2024-02-21T13:29:36;8.00;;;4.45;;
38312;SDS011;24114;52.260;6.714;2024-02-21T13:32:04;7.55;;;3.80;;
38312;SDS011;24114;52.260;6.714;2024-02-21T13:34:32;6.97;;;3.67;;
38312;SDS011;24114;52.260;6.714;2024-02-21T13:37:01;7.32;;;3.90;;
38312;SDS011;24114;52.260;6.714;2024-02-21T13:39:30;7.90;;;4.20;;
38312;SDS011;24114;52.260;6.714;2024-02-21T13:42:02;8.32;;;3.70;;
38312;SDS011;24114;52.260;6.714;2024-02-21T13:44:31;7.30;;;4.07;;
38312;SDS011;24114;52.260;6.714;2024-02-21T13:47:00;6.43;;;3.70;;
38312;SDS011;24114;52.260;6.714;2024-02-21T13:49:28;7.30;;;4.05;;
38312;SDS011;24114;52.260;6.714;2024-02-21T13:51:56;9.35;;;3.83;;
38312;SDS011;24114;52.260;6.714;2024-02-21T13:54:24;6.60;;;3.77;;
38312;SDS011;24114;52.260;6.714;2024-02-21T13:56:52;7.88;;;3.67;;
38312;SDS011;24114;52.260;6.714;2024-02-21T13:59:22;6.93;;;3.88;;
38312;SDS011;24114;52.260;6.714;2024-02-21T14:01:49;7.25;;;4.00;;
38312;SDS011;24114;52.260;6.714;2024-02-21T14:04:17;7.40;;;3.88;;
38312;SDS011;24114;52.260;6.714;2024-02-21T14:06:46;7.93;;;3.90;;
38312;SDS011;24114;52.260;6.714;2024-02-21T14:09:15;8.10;;;4.55;;
38312;SDS011;24114;52.260;6.714;2024-02-21T14:11:43;6.78;;;3.60;;
38312;SDS011;24114;52.260;6.714;2024-02-21T14:14:11;5.57;;;3.55;;
38312;SDS011;24114;52.260;6.714;2024-02-21T14:16:42;6.00;;;3.60;;
38312;SDS011;24114;52.260;6.714;2024-02-21T14:19:10;5.80;;;3.50;;
38312;SDS011;24114;52.260;6.714;2024-02-21T14:21:38;7.03;;;3.73;;
38312;SDS011;24114;52.260;6.714;2024-02-21T14:24:06;6.60;;;3.63;;
38312;SDS011;24114;52.260;6.714;2024-02-21T14:26:34;6.18;;;3.78;;
38312;SDS011;24114;52.260;6.714;2024-02-21T14:29:03;6.45;;;3.75;;
38312;SDS011;24114;52.260;6.714;2024-02-21T14:31:31;9.17;;;4.00;;
38312;SDS011;24114;52.260;6.714;2024-02-21T14:34:01;5.93;;;3.70;;
38312;SDS011;24114;52.260;6.714;2024-02-21T14:36:29;6.63;;;3.50;;
38312;SDS011;24114;52.260;6.714;2024-02-21T14:38:57;7.20;;;3.75;;
38312;SDS011;24114;52.260;6.714;2024-02-21T14:41:25;7.95;;;4.15;;
38312;SDS011;24114;52.260;6.714;2024-02-21T14:43:54;6.32;;;3.80;;